sensor_id;sensor_type;location;lat;lon;timestamp;P1;durP1;ratioP1;P2;durP2;ratioP2
14732;SDS011;7457;50.960;6.830;2022-10-31T00:00:48;10.73;;;6.97;;
14732;SDS011;7457;50.960;6.830;2022-10-31T00:03:14;11.70;;;7.88;;
14732;SDS011;7457;50.960;6.830;2022-10-31T00:05:41;16.33;;;7.18;;
14732;SDS011;7457;50.960;6.830;2022-10-31T00:08:10;13.23;;;7.38;;
14732;SDS011;7457;50.960;6.830;2022-10-31T00:10:39;17.58;;;7.40;;
14732;SDS011;7457;50.960;6.830;2022-10-31T00:13:06;11.75;;;6.65;;
14732;SDS011;7457;50.960;6.830;2022-10-31T00:15:33;9.55;;;6.65;;
14732;SDS011;7457;50.960;6.830;2022-10-31T00:17:59;15.60;;;7.78;;
14732;SDS011;7457;50.960;6.830;2022-10-31T00:20:25;20.75;;;7.53;;
14732;SDS011;7457;50.960;6.830;2022-10-31T00:22:51;11.95;;;7.95;;
14732;SDS011;7457;50.960;6.830;2022-10-31T00:25:16;12.68;;;7.95;;
14732;SDS011;7457;50.960;6.830;2022-10-31T00:27:42;13.48;;;8.07;;
14732;SDS011;7457;50.960;6.830;2022-10-31T00:30:08;11.13;;;7.55;;
14732;SDS011;7457;50.960;6.830;2022-10-31T00:32:34;14.20;;;8.43;;
14732;SDS011;7457;50.960;6.830;2022-10-31T00:34:59;15.00;;;7.65;;
14732;SDS011;7457;50.960;6.830;2022-10-31T00:37:25;17.33;;;8.48;;
14732;SDS011;7457;50.960;6.830;2022-10-31T00:39:51;11.63;;;7.78;;
14732;SDS011;7457;50.960;6.830;2022-10-31T00:42:17;14.50;;;7.50;;
14732;SDS011;7457;50.960;6.830;2022-10-31T00:44:42;9.65;;;7.20;;
14732;SDS011;7457;50.960;6.830;2022-10-31T00:47:08;10.52;;;7.47;;
14732;SDS011;7457;50.960;6.830;2022-10-31T00:49:33;11.95;;;7.78;;
14732;SDS011;7457;50.960;6.830;2022-10-31T00:51:59;12.55;;;7.63;;
14732;SDS011;7457;50.960;6.830;2022-10-31T00:54:24;10.43;;;7.45;;
14732;SDS011;7457;50.960;6.830;2022-10-31T00:56:50;10.65;;;7.18;;
14732;SDS011;7457;50.960;6.830;2022-10-31T00:59:15;11.63;;;7.30;;
14732;SDS011;7457;50.960;6.830;2022-10-31T01:01:41;12.80;;;7.25;;
14732;SDS011;7457;50.960;6.830;2022-10-31T01:04:07;9.70;;;7.03;;
14732;SDS011;7457;50.960;6.830;2022-10-31T01:06:32;16.45;;;8.18;;
14732;SDS011;7457;50.960;6.830;2022-10-31T01:08:58;17.52;;;7.68;;
14732;SDS011;7457;50.960;6.830;2022-10-31T01:11:24;11.15;;;7.13;;
14732;SDS011;7457;50.960;6.830;2022-10-31T01:13:50;15.20;;;7.50;;
14732;SDS011;7457;50.960;6.830;2022-10-31T01:16:18;13.88;;;7.15;;
14732;SDS011;7457;50.960;6.830;2022-10-31T01:18:46;11.80;;;6.65;;
14732;SDS011;7457;50.960;6.830;2022-10-31T01:21:14;13.57;;;7.63;;
14732;SDS011;7457;50.960;6.830;2022-10-31T01:23:52;10.98;;;6.85;;
14732;SDS011;7457;50.960;6.830;2022-10-31T01:26:20;14.65;;;7.13;;
14732;SDS011;7457;50.960;6.830;2022-10-31T01:28:51;11.45;;;7.95;;
14732;SDS011;7457;50.960;6.830;2022-10-31T01:31:23;10.38;;;7.25;;
14732;SDS011;7457;50.960;6.830;2022-10-31T01:33:51;16.17;;;8.07;;
14732;SDS011;7457;50.960;6.830;2022-10-31T01:36:21;15.18;;;7.97;;
14732;SDS011;7457;50.960;6.830;2022-10-31T01:38:58;13.98;;;7.53;;
14732;SDS011;7457;50.960;6.830;2022-10-31T01:41:26;12.77;;;6.68;;
14732;SDS011;7457;50.960;6.830;2022-10-31T01:43:54;10.80;;;7.57;;
14732;SDS011;7457;50.960;6.830;2022-10-31T01:46:24;11.05;;;7.18;;
14732;SDS011;7457;50.960;6.830;2022-10-31T01:48:50;15.82;;;7.72;;
14732;SDS011;7457;50.960;6.830;2022-10-31T01:51:19;9.98;;;6.50;;
14732;SDS011;7457;50.960;6.830;2022-10-31T01:53:47;9.18;;;6.45;;
14732;SDS011;7457;50.960;6.830;2022-10-31T01:56:15;12.18;;;6.60;;
14732;SDS011;7457;50.960;6.830;2022-10-31T01:58:41;13.32;;;7.38;;
14732;SDS011;7457;50.960;6.830;2022-10-31T02:01:09;11.98;;;7.15;;
14732;SDS011;7457;50.960;6.830;2022-10-31T02:03:35;15.32;;;8.02;;
14732;SDS011;7457;50.960;6.830;2022-10-31T02:06:00;14.20;;;8.07;;
14732;SDS011;7457;50.960;6.830;2022-10-31T02:08:31;12.35;;;7.40;;
14732;SDS011;7457;50.960;6.830;2022-10-31T02:11:00;12.02;;;7.75;;
14732;SDS011;7457;50.960;6.830;2022-10-31T02:13:26;10.35;;;6.93;;
14732;SDS011;7457;50.960;6.830;2022-10-31T02:15:55;14.68;;;7.05;;
14732;SDS011;7457;50.960;6.830;2022-10-31T02:18:22;11.80;;;6.68;;
14732;SDS011;7457;50.960;6.830;2022-10-31T02:31:44;11.15;;;6.57;;
14732;SDS011;7457;50.960;6.830;2022-10-31T02:39:38;9.63;;;7.30;;
14732;SDS011;7457;50.960;6.830;2022-10-31T02:42:18;11.18;;;7.47;;
14732;SDS011;7457;50.960;6.830;2022-10-31T02:44:54;10.40;;;6.95;;
14732;SDS011;7457;50.960;6.830;2022-10-31T02:47:28;14.68;;;7.25;;
14732;SDS011;7457;50.960;6.830;2022-10-31T02:52:34;18.83;;;7.78;;
14732;SDS011;7457;50.960;6.830;2022-10-31T03:00:37;15.73;;;8.30;;
14732;SDS011;7457;50.960;6.830;2022-10-31T03:03:14;13.02;;;8.32;;
14732;SDS011;7457;50.960;6.830;2022-10-31T03:08:41;11.52;;;8.27;;
14732;SDS011;7457;50.960;6.830;2022-10-31T03:11:13;15.63;;;7.97;;
14732;SDS011;7457;50.960;6.830;2022-10-31T03:13:46;15.30;;;7.70;;
14732;SDS011;7457;50.960;6.830;2022-10-31T03:16:41;10.15;;;7.28;;
14732;SDS011;7457;50.960;6.830;2022-10-31T03:19:19;14.45;;;7.78;;
14732;SDS011;7457;50.960;6.830;2022-10-31T03:21:55;17.00;;;8.07;;
14732;SDS011;7457;50.960;6.830;2022-10-31T03:24:24;12.15;;;7.97;;
14732;SDS011;7457;50.960;6.830;2022-10-31T03:26:54;11.32;;;7.00;;
14732;SDS011;7457;50.960;6.830;2022-10-31T03:29:25;9.52;;;7.18;;
14732;SDS011;7457;50.960;6.830;2022-10-31T03:31:55;17.25;;;7.85;;
14732;SDS011;7457;50.960;6.830;2022-10-31T03:34:24;17.33;;;7.68;;
14732;SDS011;7457;50.960;6.830;2022-10-31T03:36:51;12.55;;;7.60;;
14732;SDS011;7457;50.960;6.830;2022-10-31T03:39:22;10.07;;;7.60;;
14732;SDS011;7457;50.960;6.830;2022-10-31T03:41:59;11.70;;;7.95;;
14732;SDS011;7457;50.960;6.830;2022-10-31T03:44:30;13.80;;;8.55;;
14732;SDS011;7457;50.960;6.830;2022-10-31T03:46:58;13.35;;;8.20;;
14732;SDS011;7457;50.960;6.830;2022-10-31T03:49:25;14.48;;;8.25;;
14732;SDS011;7457;50.960;6.830;2022-10-31T03:54:58;15.05;;;9.05;;
14732;SDS011;7457;50.960;6.830;2022-10-31T03:57:39;14.07;;;8.68;;
14732;SDS011;7457;50.960;6.830;2022-10-31T04:00:15;13.93;;;7.60;;
14732;SDS011;7457;50.960;6.830;2022-10-31T04:02:43;14.35;;;8.52;;
14732;SDS011;7457;50.960;6.830;2022-10-31T04:05:20;21.27;;;8.75;;
14732;SDS011;7457;50.960;6.830;2022-10-31T04:07:47;16.80;;;8.68;;
14732;SDS011;7457;50.960;6.830;2022-10-31T04:10:16;16.50;;;9.15;;
14732;SDS011;7457;50.960;6.830;2022-10-31T04:12:44;15.57;;;8.98;;
14732;SDS011;7457;50.960;6.830;2022-10-31T04:15:17;17.85;;;9.85;;
14732;SDS011;7457;50.960;6.830;2022-10-31T04:17:44;18.23;;;9.75;;
14732;SDS011;7457;50.960;6.830;2022-10-31T04:20:14;14.40;;;9.13;;
14732;SDS011;7457;50.960;6.830;2022-10-31T04:22:41;11.23;;;8.18;;
14732;SDS011;7457;50.960;6.830;2022-10-31T04:25:06;16.40;;;8.68;;
14732;SDS011;7457;50.960;6.830;2022-10-31T04:27:33;16.20;;;8.48;;
14732;SDS011;7457;50.960;6.830;2022-10-31T04:29:58;12.82;;;8.65;;
14732;SDS011;7457;50.960;6.830;2022-10-31T04:32:24;18.58;;;9.43;;
14732;SDS011;7457;50.960;6.830;2022-10-31T04:34:50;17.27;;;10.00;;
14732;SDS011;7457;50.960;6.830;2022-10-31T04:37:15;16.73;;;9.57;;
14732;SDS011;7457;50.960;6.830;2022-10-31T04:39:41;14.32;;;9.50;;
14732;SDS011;7457;50.960;6.830;2022-10-31T04:42:07;19.33;;;9.18;;
14732;SDS011;7457;50.960;6.830;2022-10-31T04:44:32;15.00;;;9.15;;
14732;SDS011;7457;50.960;6.830;2022-10-31T04:46:58;14.88;;;9.13;;
14732;SDS011;7457;50.960;6.830;2022-10-31T04:49:23;15.98;;;9.32;;
14732;SDS011;7457;50.960;6.830;2022-10-31T04:51:49;16.40;;;8.90;;
14732;SDS011;7457;50.960;6.830;2022-10-31T04:54:15;14.40;;;9.32;;
14732;SDS011;7457;50.960;6.830;2022-10-31T04:56:40;14.48;;;9.23;;
14732;SDS011;7457;50.960;6.830;2022-10-31T04:59:06;17.40;;;9.10;;
14732;SDS011;7457;50.960;6.830;2022-10-31T05:01:32;12.25;;;9.25;;
14732;SDS011;7457;50.960;6.830;2022-10-31T05:03:57;14.88;;;8.40;;
14732;SDS011;7457;50.960;6.830;2022-10-31T05:06:23;11.20;;;8.13;;
14732;SDS011;7457;50.960;6.830;2022-10-31T05:08:48;13.15;;;7.85;;
14732;SDS011;7457;50.960;6.830;2022-10-31T05:11:14;14.40;;;8.07;;
14732;SDS011;7457;50.960;6.830;2022-10-31T05:13:39;15.60;;;8.32;;
14732;SDS011;7457;50.960;6.830;2022-10-31T05:16:05;13.57;;;8.68;;
14732;SDS011;7457;50.960;6.830;2022-10-31T05:18:31;14.70;;;8.32;;
14732;SDS011;7457;50.960;6.830;2022-10-31T05:20:56;13.52;;;8.60;;
14732;SDS011;7457;50.960;6.830;2022-10-31T05:23:22;19.33;;;8.77;;
14732;SDS011;7457;50.960;6.830;2022-10-31T05:25:48;15.70;;;7.82;;
14732;SDS011;7457;50.960;6.830;2022-10-31T05:28:13;14.70;;;7.93;;
14732;SDS011;7457;50.960;6.830;2022-10-31T05:30:39;10.75;;;7.97;;
14732;SDS011;7457;50.960;6.830;2022-10-31T05:33:04;13.98;;;8.10;;
14732;SDS011;7457;50.960;6.830;2022-10-31T05:35:31;11.38;;;7.75;;
14732;SDS011;7457;50.960;6.830;2022-10-31T05:37:57;18.45;;;7.55;;
14732;SDS011;7457;50.960;6.830;2022-10-31T05:40:23;15.55;;;7.88;;
14732;SDS011;7457;50.960;6.830;2022-10-31T05:42:50;14.07;;;8.18;;
14732;SDS011;7457;50.960;6.830;2022-10-31T05:45:17;14.15;;;8.15;;
14732;SDS011;7457;50.960;6.830;2022-10-31T05:47:53;13.82;;;7.65;;
14732;SDS011;7457;50.960;6.830;2022-10-31T05:50:23;13.85;;;8.23;;
14732;SDS011;7457;50.960;6.830;2022-10-31T05:52:55;12.25;;;7.70;;
14732;SDS011;7457;50.960;6.830;2022-10-31T05:55:23;15.30;;;7.65;;
14732;SDS011;7457;50.960;6.830;2022-10-31T05:57:50;14.90;;;7.53;;
14732;SDS011;7457;50.960;6.830;2022-10-31T06:00:17;11.75;;;7.28;;
14732;SDS011;7457;50.960;6.830;2022-10-31T06:02:43;14.70;;;7.55;;
14732;SDS011;7457;50.960;6.830;2022-10-31T06:05:08;12.63;;;7.38;;
14732;SDS011;7457;50.960;6.830;2022-10-31T06:07:34;10.25;;;7.90;;
14732;SDS011;7457;50.960;6.830;2022-10-31T06:10:00;12.38;;;6.80;;
14732;SDS011;7457;50.960;6.830;2022-10-31T06:12:28;10.73;;;7.35;;
14732;SDS011;7457;50.960;6.830;2022-10-31T06:14:54;13.10;;;7.43;;
14732;SDS011;7457;50.960;6.830;2022-10-31T06:17:20;12.40;;;7.63;;
14732;SDS011;7457;50.960;6.830;2022-10-31T06:19:45;11.40;;;8.27;;
14732;SDS011;7457;50.960;6.830;2022-10-31T06:22:11;11.40;;;7.40;;
14732;SDS011;7457;50.960;6.830;2022-10-31T06:24:37;16.77;;;9.07;;
14732;SDS011;7457;50.960;6.830;2022-10-31T06:27:03;14.18;;;8.55;;
14732;SDS011;7457;50.960;6.830;2022-10-31T06:29:29;12.20;;;8.02;;
14732;SDS011;7457;50.960;6.830;2022-10-31T06:32:06;16.00;;;7.55;;
14732;SDS011;7457;50.960;6.830;2022-10-31T06:34:54;13.82;;;7.18;;
14732;SDS011;7457;50.960;6.830;2022-10-31T06:37:20;11.10;;;7.85;;
14732;SDS011;7457;50.960;6.830;2022-10-31T06:39:45;15.52;;;7.90;;
14732;SDS011;7457;50.960;6.830;2022-10-31T06:42:20;13.50;;;8.10;;
14732;SDS011;7457;50.960;6.830;2022-10-31T06:44:45;12.20;;;7.47;;
14732;SDS011;7457;50.960;6.830;2022-10-31T06:47:14;11.57;;;8.35;;
14732;SDS011;7457;50.960;6.830;2022-10-31T06:49:47;15.15;;;7.53;;
14732;SDS011;7457;50.960;6.830;2022-10-31T06:52:13;11.48;;;8.20;;
14732;SDS011;7457;50.960;6.830;2022-10-31T06:54:38;12.10;;;8.07;;
14732;SDS011;7457;50.960;6.830;2022-10-31T06:57:04;13.07;;;7.70;;
14732;SDS011;7457;50.960;6.830;2022-10-31T06:59:29;10.27;;;7.57;;
14732;SDS011;7457;50.960;6.830;2022-10-31T07:01:57;15.48;;;7.70;;
14732;SDS011;7457;50.960;6.830;2022-10-31T07:04:23;13.70;;;7.70;;
14732;SDS011;7457;50.960;6.830;2022-10-31T07:06:50;12.50;;;7.40;;
14732;SDS011;7457;50.960;6.830;2022-10-31T07:09:17;14.95;;;7.18;;
14732;SDS011;7457;50.960;6.830;2022-10-31T07:11:43;9.50;;;7.40;;
14732;SDS011;7457;50.960;6.830;2022-10-31T07:14:08;10.43;;;6.78;;
14732;SDS011;7457;50.960;6.830;2022-10-31T07:16:34;12.07;;;7.13;;
14732;SDS011;7457;50.960;6.830;2022-10-31T07:18:59;9.50;;;7.03;;
14732;SDS011;7457;50.960;6.830;2022-10-31T07:21:25;12.20;;;7.65;;
14732;SDS011;7457;50.960;6.830;2022-10-31T07:23:51;10.63;;;7.35;;
14732;SDS011;7457;50.960;6.830;2022-10-31T07:26:16;10.93;;;6.82;;
14732;SDS011;7457;50.960;6.830;2022-10-31T07:28:42;12.38;;;7.65;;
14732;SDS011;7457;50.960;6.830;2022-10-31T07:31:07;12.15;;;7.85;;
14732;SDS011;7457;50.960;6.830;2022-10-31T07:33:33;13.18;;;7.22;;
14732;SDS011;7457;50.960;6.830;2022-10-31T07:35:59;9.93;;;7.40;;
14732;SDS011;7457;50.960;6.830;2022-10-31T07:38:25;15.43;;;8.52;;
14732;SDS011;7457;50.960;6.830;2022-10-31T07:40:51;10.85;;;7.90;;
14732;SDS011;7457;50.960;6.830;2022-10-31T07:43:17;12.55;;;7.90;;
14732;SDS011;7457;50.960;6.830;2022-10-31T07:45:43;12.45;;;8.05;;
14732;SDS011;7457;50.960;6.830;2022-10-31T07:48:08;15.27;;;7.78;;
14732;SDS011;7457;50.960;6.830;2022-10-31T07:50:34;13.75;;;8.00;;
14732;SDS011;7457;50.960;6.830;2022-10-31T07:53:07;12.35;;;7.88;;
14732;SDS011;7457;50.960;6.830;2022-10-31T07:55:34;11.77;;;7.32;;
14732;SDS011;7457;50.960;6.830;2022-10-31T07:58:01;13.23;;;8.00;;
14732;SDS011;7457;50.960;6.830;2022-10-31T08:00:28;10.10;;;8.15;;
14732;SDS011;7457;50.960;6.830;2022-10-31T08:02:56;14.85;;;8.13;;
14732;SDS011;7457;50.960;6.830;2022-10-31T08:05:29;10.80;;;7.85;;
14732;SDS011;7457;50.960;6.830;2022-10-31T08:07:55;13.93;;;7.55;;
14732;SDS011;7457;50.960;6.830;2022-10-31T08:10:21;13.90;;;8.68;;
14732;SDS011;7457;50.960;6.830;2022-10-31T08:12:47;10.65;;;7.50;;
14732;SDS011;7457;50.960;6.830;2022-10-31T08:15:19;13.73;;;8.32;;
14732;SDS011;7457;50.960;6.830;2022-10-31T08:17:44;10.98;;;7.60;;
14732;SDS011;7457;50.960;6.830;2022-10-31T08:20:10;13.18;;;8.18;;
14732;SDS011;7457;50.960;6.830;2022-10-31T08:22:36;12.95;;;7.97;;
14732;SDS011;7457;50.960;6.830;2022-10-31T08:25:01;12.07;;;7.78;;
14732;SDS011;7457;50.960;6.830;2022-10-31T08:27:27;17.02;;;8.57;;
14732;SDS011;7457;50.960;6.830;2022-10-31T08:29:52;14.02;;;7.65;;
14732;SDS011;7457;50.960;6.830;2022-10-31T08:32:18;13.82;;;7.47;;
14732;SDS011;7457;50.960;6.830;2022-10-31T08:34:43;10.10;;;7.30;;
14732;SDS011;7457;50.960;6.830;2022-10-31T08:37:09;10.15;;;7.10;;
14732;SDS011;7457;50.960;6.830;2022-10-31T08:39:35;18.00;;;7.45;;
14732;SDS011;7457;50.960;6.830;2022-10-31T08:42:00;10.57;;;7.70;;
14732;SDS011;7457;50.960;6.830;2022-10-31T08:44:26;12.40;;;7.53;;
14732;SDS011;7457;50.960;6.830;2022-10-31T08:46:51;12.68;;;7.50;;
14732;SDS011;7457;50.960;6.830;2022-10-31T08:49:18;11.10;;;7.40;;
14732;SDS011;7457;50.960;6.830;2022-10-31T08:51:43;12.88;;;7.65;;
14732;SDS011;7457;50.960;6.830;2022-10-31T08:54:12;14.75;;;7.47;;
14732;SDS011;7457;50.960;6.830;2022-10-31T08:56:38;12.45;;;7.25;;
14732;SDS011;7457;50.960;6.830;2022-10-31T08:59:04;13.43;;;7.38;;
14732;SDS011;7457;50.960;6.830;2022-10-31T09:01:29;12.65;;;7.88;;
14732;SDS011;7457;50.960;6.830;2022-10-31T09:03:55;14.77;;;7.90;;
14732;SDS011;7457;50.960;6.830;2022-10-31T09:06:20;16.15;;;7.13;;
14732;SDS011;7457;50.960;6.830;2022-10-31T09:08:46;13.13;;;7.18;;
14732;SDS011;7457;50.960;6.830;2022-10-31T09:11:11;10.55;;;6.85;;
14732;SDS011;7457;50.960;6.830;2022-10-31T09:13:37;11.88;;;7.50;;
14732;SDS011;7457;50.960;6.830;2022-10-31T09:16:03;13.43;;;7.40;;
14732;SDS011;7457;50.960;6.830;2022-10-31T09:18:28;10.30;;;7.05;;
14732;SDS011;7457;50.960;6.830;2022-10-31T09:20:56;8.93;;;7.25;;
14732;SDS011;7457;50.960;6.830;2022-10-31T09:23:23;22.33;;;7.88;;
14732;SDS011;7457;50.960;6.830;2022-10-31T09:25:49;22.65;;;7.60;;
14732;SDS011;7457;50.960;6.830;2022-10-31T09:28:17;17.83;;;7.57;;
14732;SDS011;7457;50.960;6.830;2022-10-31T09:30:49;10.45;;;7.53;;
14732;SDS011;7457;50.960;6.830;2022-10-31T09:33:16;11.07;;;7.05;;
14732;SDS011;7457;50.960;6.830;2022-10-31T09:35:42;10.77;;;6.97;;
14732;SDS011;7457;50.960;6.830;2022-10-31T09:38:09;17.65;;;7.25;;
14732;SDS011;7457;50.960;6.830;2022-10-31T09:40:44;16.70;;;8.13;;
14732;SDS011;7457;50.960;6.830;2022-10-31T09:46:05;12.48;;;7.47;;
14732;SDS011;7457;50.960;6.830;2022-10-31T09:51:12;11.38;;;6.50;;
14732;SDS011;7457;50.960;6.830;2022-10-31T09:56:24;8.82;;;6.13;;
14732;SDS011;7457;50.960;6.830;2022-10-31T09:58:56;14.05;;;7.45;;
14732;SDS011;7457;50.960;6.830;2022-10-31T10:03:57;13.65;;;6.60;;
14732;SDS011;7457;50.960;6.830;2022-10-31T10:06:35;12.93;;;6.85;;
14732;SDS011;7457;50.960;6.830;2022-10-31T10:09:08;9.88;;;6.50;;
14732;SDS011;7457;50.960;6.830;2022-10-31T10:11:41;12.52;;;7.57;;
14732;SDS011;7457;50.960;6.830;2022-10-31T10:17:10;16.38;;;7.05;;
14732;SDS011;7457;50.960;6.830;2022-10-31T10:22:25;11.40;;;6.15;;
14732;SDS011;7457;50.960;6.830;2022-10-31T10:30:15;14.75;;;6.43;;
14732;SDS011;7457;50.960;6.830;2022-10-31T10:32:56;10.82;;;6.53;;
14732;SDS011;7457;50.960;6.830;2022-10-31T10:35:26;11.98;;;6.65;;
14732;SDS011;7457;50.960;6.830;2022-10-31T10:37:57;9.95;;;6.65;;
14732;SDS011;7457;50.960;6.830;2022-10-31T10:40:43;14.90;;;6.55;;
14732;SDS011;7457;50.960;6.830;2022-10-31T11:00:17;12.48;;;6.35;;
14732;SDS011;7457;50.960;6.830;2022-10-31T11:02:51;11.80;;;5.97;;
14732;SDS011;7457;50.960;6.830;2022-10-31T11:05:23;14.13;;;7.15;;
14732;SDS011;7457;50.960;6.830;2022-10-31T11:08:35;8.65;;;5.25;;
14732;SDS011;7457;50.960;6.830;2022-10-31T11:11:02;13.68;;;5.93;;
14732;SDS011;7457;50.960;6.830;2022-10-31T11:13:30;10.25;;;5.82;;
14732;SDS011;7457;50.960;6.830;2022-10-31T11:16:03;9.63;;;6.13;;
14732;SDS011;7457;50.960;6.830;2022-10-31T11:18:30;8.55;;;5.10;;
14732;SDS011;7457;50.960;6.830;2022-10-31T11:20:59;9.02;;;5.60;;
14732;SDS011;7457;50.960;6.830;2022-10-31T11:23:28;9.30;;;5.13;;
14732;SDS011;7457;50.960;6.830;2022-10-31T11:25:56;10.45;;;5.55;;
14732;SDS011;7457;50.960;6.830;2022-10-31T11:28:23;13.77;;;5.57;;
14732;SDS011;7457;50.960;6.830;2022-10-31T11:33:35;8.90;;;5.75;;
14732;SDS011;7457;50.960;6.830;2022-10-31T11:38:49;9.55;;;5.15;;
14732;SDS011;7457;50.960;6.830;2022-10-31T11:41:17;12.18;;;5.43;;
14732;SDS011;7457;50.960;6.830;2022-10-31T11:43:51;13.70;;;6.03;;
14732;SDS011;7457;50.960;6.830;2022-10-31T11:46:22;8.50;;;4.75;;
14732;SDS011;7457;50.960;6.830;2022-10-31T11:48:52;10.10;;;5.30;;
14732;SDS011;7457;50.960;6.830;2022-10-31T11:51:20;8.68;;;5.47;;
14732;SDS011;7457;50.960;6.830;2022-10-31T11:53:52;9.30;;;5.18;;
14732;SDS011;7457;50.960;6.830;2022-10-31T11:56:20;12.07;;;5.82;;
14732;SDS011;7457;50.960;6.830;2022-10-31T11:59:50;7.18;;;5.43;;
14732;SDS011;7457;50.960;6.830;2022-10-31T12:01:46;11.63;;;5.68;;
14732;SDS011;7457;50.960;6.830;2022-10-31T12:04:14;10.18;;;5.30;;
14732;SDS011;7457;50.960;6.830;2022-10-31T12:06:42;10.02;;;5.22;;
14732;SDS011;7457;50.960;6.830;2022-10-31T12:09:23;8.07;;;5.13;;
14732;SDS011;7457;50.960;6.830;2022-10-31T12:17:52;9.15;;;5.55;;
14732;SDS011;7457;50.960;6.830;2022-10-31T12:24:09;7.10;;;4.85;;
14732;SDS011;7457;50.960;6.830;2022-10-31T12:29:12;13.18;;;4.68;;
14732;SDS011;7457;50.960;6.830;2022-10-31T12:37:53;12.90;;;5.25;;
14732;SDS011;7457;50.960;6.830;2022-10-31T12:52:03;9.93;;;5.22;;
14732;SDS011;7457;50.960;6.830;2022-10-31T12:57:17;14.35;;;5.25;;
14732;SDS011;7457;50.960;6.830;2022-10-31T12:59:51;6.43;;;4.80;;
14732;SDS011;7457;50.960;6.830;2022-10-31T13:05:29;10.52;;;5.28;;
14732;SDS011;7457;50.960;6.830;2022-10-31T13:10:45;13.13;;;4.55;;
14732;SDS011;7457;50.960;6.830;2022-10-31T13:13:18;8.55;;;4.93;;
14732;SDS011;7457;50.960;6.830;2022-10-31T13:15:51;9.82;;;5.10;;
14732;SDS011;7457;50.960;6.830;2022-10-31T13:18:29;9.10;;;5.10;;
14732;SDS011;7457;50.960;6.830;2022-10-31T13:21:03;10.50;;;5.40;;
14732;SDS011;7457;50.960;6.830;2022-10-31T13:23:37;10.73;;;5.85;;
14732;SDS011;7457;50.960;6.830;2022-10-31T13:26:09;12.35;;;4.95;;
14732;SDS011;7457;50.960;6.830;2022-10-31T13:31:25;9.77;;;5.15;;
14732;SDS011;7457;50.960;6.830;2022-10-31T13:33:52;8.70;;;4.63;;
14732;SDS011;7457;50.960;6.830;2022-10-31T13:39:02;10.73;;;4.55;;
14732;SDS011;7457;50.960;6.830;2022-10-31T13:44:20;6.68;;;4.50;;
14732;SDS011;7457;50.960;6.830;2022-10-31T13:46:51;10.75;;;4.70;;
14732;SDS011;7457;50.960;6.830;2022-10-31T13:54:43;8.75;;;4.13;;
14732;SDS011;7457;50.960;6.830;2022-10-31T13:59:52;9.80;;;5.20;;
14732;SDS011;7457;50.960;6.830;2022-10-31T14:02:27;8.07;;;4.70;;
14732;SDS011;7457;50.960;6.830;2022-10-31T14:05:06;9.65;;;5.00;;
14732;SDS011;7457;50.960;6.830;2022-10-31T14:07:43;7.85;;;4.80;;
14732;SDS011;7457;50.960;6.830;2022-10-31T14:10:27;10.27;;;4.93;;
14732;SDS011;7457;50.960;6.830;2022-10-31T14:15:29;6.13;;;4.55;;
14732;SDS011;7457;50.960;6.830;2022-10-31T14:20:36;9.27;;;4.40;;
14732;SDS011;7457;50.960;6.830;2022-10-31T14:25:50;9.93;;;4.57;;
14732;SDS011;7457;50.960;6.830;2022-10-31T14:28:20;9.27;;;4.47;;
14732;SDS011;7457;50.960;6.830;2022-10-31T14:30:56;11.50;;;5.32;;
14732;SDS011;7457;50.960;6.830;2022-10-31T14:33:29;8.20;;;4.70;;
14732;SDS011;7457;50.960;6.830;2022-10-31T14:36:10;12.18;;;4.47;;
14732;SDS011;7457;50.960;6.830;2022-10-31T14:41:15;10.15;;;4.97;;
14732;SDS011;7457;50.960;6.830;2022-10-31T14:51:58;7.50;;;4.07;;
14732;SDS011;7457;50.960;6.830;2022-10-31T14:54:27;10.20;;;4.20;;
14732;SDS011;7457;50.960;6.830;2022-10-31T14:56:59;8.93;;;4.78;;
14732;SDS011;7457;50.960;6.830;2022-10-31T14:59:30;5.95;;;3.75;;
14732;SDS011;7457;50.960;6.830;2022-10-31T15:02:04;7.10;;;4.15;;
14732;SDS011;7457;50.960;6.830;2022-10-31T15:04:44;7.88;;;4.18;;
14732;SDS011;7457;50.960;6.830;2022-10-31T15:07:13;9.50;;;4.35;;
14732;SDS011;7457;50.960;6.830;2022-10-31T15:09:42;7.90;;;4.45;;
14732;SDS011;7457;50.960;6.830;2022-10-31T15:12:27;8.55;;;5.10;;
14732;SDS011;7457;50.960;6.830;2022-10-31T15:14:54;5.20;;;3.75;;
14732;SDS011;7457;50.960;6.830;2022-10-31T15:17:21;9.15;;;4.65;;
14732;SDS011;7457;50.960;6.830;2022-10-31T15:19:49;8.48;;;4.68;;
14732;SDS011;7457;50.960;6.830;2022-10-31T15:22:16;9.60;;;4.57;;
14732;SDS011;7457;50.960;6.830;2022-10-31T15:24:44;6.80;;;4.00;;
14732;SDS011;7457;50.960;6.830;2022-10-31T15:27:11;9.90;;;4.15;;
14732;SDS011;7457;50.960;6.830;2022-10-31T15:29:49;8.98;;;4.20;;
14732;SDS011;7457;50.960;6.830;2022-10-31T15:32:20;10.80;;;3.85;;
14732;SDS011;7457;50.960;6.830;2022-10-31T15:34:48;6.43;;;4.05;;
14732;SDS011;7457;50.960;6.830;2022-10-31T15:37:15;9.15;;;4.35;;
14732;SDS011;7457;50.960;6.830;2022-10-31T15:39:43;7.25;;;4.68;;
14732;SDS011;7457;50.960;6.830;2022-10-31T15:42:26;11.10;;;4.63;;
14732;SDS011;7457;50.960;6.830;2022-10-31T15:47:30;6.03;;;4.28;;
14732;SDS011;7457;50.960;6.830;2022-10-31T15:49:58;9.90;;;4.13;;
14732;SDS011;7457;50.960;6.830;2022-10-31T15:57:48;6.13;;;3.83;;
14732;SDS011;7457;50.960;6.830;2022-10-31T16:00:35;11.30;;;4.03;;
14732;SDS011;7457;50.960;6.830;2022-10-31T16:05:34;10.27;;;4.57;;
14732;SDS011;7457;50.960;6.830;2022-10-31T16:08:19;9.90;;;5.35;;
14732;SDS011;7457;50.960;6.830;2022-10-31T16:10:50;14.45;;;4.70;;
14732;SDS011;7457;50.960;6.830;2022-10-31T16:13:16;10.07;;;3.90;;
14732;SDS011;7457;50.960;6.830;2022-10-31T16:15:49;9.45;;;4.10;;
14732;SDS011;7457;50.960;6.830;2022-10-31T16:18:22;10.07;;;4.38;;
14732;SDS011;7457;50.960;6.830;2022-10-31T16:20:49;8.43;;;3.78;;
14732;SDS011;7457;50.960;6.830;2022-10-31T16:23:18;7.85;;;4.78;;
14732;SDS011;7457;50.960;6.830;2022-10-31T16:25:45;8.07;;;4.50;;
14732;SDS011;7457;50.960;6.830;2022-10-31T16:28:20;7.35;;;4.15;;
14732;SDS011;7457;50.960;6.830;2022-10-31T16:30:51;8.93;;;3.80;;
14732;SDS011;7457;50.960;6.830;2022-10-31T16:35:53;9.10;;;4.90;;
14732;SDS011;7457;50.960;6.830;2022-10-31T16:38:20;8.45;;;3.70;;
14732;SDS011;7457;50.960;6.830;2022-10-31T16:40:46;12.55;;;4.78;;
14732;SDS011;7457;50.960;6.830;2022-10-31T16:43:12;8.60;;;4.93;;
14732;SDS011;7457;50.960;6.830;2022-10-31T16:45:42;9.82;;;4.50;;
14732;SDS011;7457;50.960;6.830;2022-10-31T16:48:10;11.40;;;4.22;;
14732;SDS011;7457;50.960;6.830;2022-10-31T16:50:40;8.93;;;4.45;;
14732;SDS011;7457;50.960;6.830;2022-10-31T16:53:09;11.70;;;4.47;;
14732;SDS011;7457;50.960;6.830;2022-10-31T16:55:41;8.43;;;4.30;;
14732;SDS011;7457;50.960;6.830;2022-10-31T16:58:12;11.75;;;4.80;;
14732;SDS011;7457;50.960;6.830;2022-10-31T17:00:43;10.00;;;4.78;;
14732;SDS011;7457;50.960;6.830;2022-10-31T17:03:09;9.45;;;4.60;;
14732;SDS011;7457;50.960;6.830;2022-10-31T17:05:35;9.93;;;5.25;;
14732;SDS011;7457;50.960;6.830;2022-10-31T17:08:02;9.80;;;4.43;;
14732;SDS011;7457;50.960;6.830;2022-10-31T17:10:28;8.10;;;4.25;;
14732;SDS011;7457;50.960;6.830;2022-10-31T17:12:54;8.10;;;4.97;;
14732;SDS011;7457;50.960;6.830;2022-10-31T17:15:25;10.57;;;4.78;;
14732;SDS011;7457;50.960;6.830;2022-10-31T17:17:52;8.98;;;4.40;;
14732;SDS011;7457;50.960;6.830;2022-10-31T17:20:22;9.52;;;4.82;;
14732;SDS011;7457;50.960;6.830;2022-10-31T17:22:48;16.05;;;4.90;;
14732;SDS011;7457;50.960;6.830;2022-10-31T17:25:16;13.55;;;4.60;;
14732;SDS011;7457;50.960;6.830;2022-10-31T17:27:43;8.35;;;4.25;;
14732;SDS011;7457;50.960;6.830;2022-10-31T17:30:10;8.02;;;4.65;;
14732;SDS011;7457;50.960;6.830;2022-10-31T17:32:37;8.65;;;4.68;;
14732;SDS011;7457;50.960;6.830;2022-10-31T17:35:03;8.25;;;4.55;;
14732;SDS011;7457;50.960;6.830;2022-10-31T17:37:30;9.88;;;4.45;;
14732;SDS011;7457;50.960;6.830;2022-10-31T17:39:55;9.32;;;5.43;;
14732;SDS011;7457;50.960;6.830;2022-10-31T17:42:21;10.25;;;4.65;;